Time;durP1;ratioP1;P1;durP2;ratioP2;P2;SDS_P1;SDS_P2;PMS_P1;PMS_P2;Temp;Humidity;BMP_temperature;BMP_pressure;BME280_temperature;BME280_humidity;BME280_pressure;Samples;Min_cycle;Max_cycle;Signal;HPM_P1;HPM_P2
2022/02/11 00:05:11;;;;;;;6.72;6.13;;;7.70;99.90;;;;;;5037486;28;20226;-81
2022/02/11 00:07:38;;;;;;;5.38;4.95;;;7.80;99.90;;;;;;5037542;28;20209;-81
2022/02/11 00:10:08;;;;;;;6.80;6.20;;;7.90;99.90;;;;;;5037198;28;20727;-80
2022/02/11 00:12:35;;;;;;;6.32;4.75;;;7.90;99.90;;;;;;5036897;28;20213;-80
2022/02/11 00:15:23;;;;;;;7.78;4.97;;;7.70;99.90;;;;;;5036906;28;20209;-80
2022/02/11 00:17:50;;;;;;;5.05;4.65;;;7.80;99.90;;;;;;5037241;28;20290;-80
2022/02/11 00:20:17;;;;;;;5.53;5.03;;;7.80;99.90;;;;;;5036126;28;20222;-81
2022/02/11 00:22:44;;;;;;;5.82;4.80;;;7.60;99.90;;;;;;5036400;28;20207;-80
2022/02/11 00:25:13;;;;;;;7.80;5.10;;;7.70;99.90;;;;;;5036998;28;20614;-80
2022/02/11 00:33:17;;;;;;;7.70;5.18;;;7.60;99.90;;;;;;5036689;28;20269;-82
2022/02/11 00:35:49;;;;;;;5.80;4.85;;;7.60;99.90;;;;;;5036814;28;20664;-82
2022/02/11 00:38:21;;;;;;;4.88;4.38;;;7.60;99.90;;;;;;5037420;28;20206;-81
2022/02/11 00:44:27;;;;;;;4.55;4.15;;;7.40;99.90;;;;;;5057664;28;20206;-82
2022/02/11 01:03:10;;;;;;;5.22;4.72;;;6.60;99.90;;;;;;5057220;28;20212;-82
2022/02/11 01:05:37;;;;;;;4.93;4.03;;;6.60;99.90;;;;;;5057453;28;20316;-82
2022/02/11 01:08:04;;;;;;;6.63;5.93;;;6.50;99.90;;;;;;5057630;28;20212;-81
2022/02/11 01:10:32;;;;;;;5.07;4.57;;;6.40;99.90;;;;;;5057490;28;20234;-81
2022/02/11 01:13:00;;;;;;;5.60;4.18;;;6.40;99.90;;;;;;5056805;28;20284;-82
2022/02/11 01:15:29;;;;;;;5.20;4.65;;;6.30;99.90;;;;;;5060038;28;20210;-82
2022/02/11 01:18:01;;;;;;;7.45;4.40;;;6.20;99.90;;;;;;5056993;28;20206;-82
2022/02/11 01:20:42;;;;;;;4.53;4.13;;;6.20;99.90;;;;;;5057308;28;20236;-82
2022/02/11 01:23:18;;;;;;;5.13;4.63;;;6.10;99.90;;;;;;5057098;28;20209;-81
2022/02/11 01:26:08;;;;;;;5.25;4.85;;;6.10;99.90;;;;;;5057618;28;20225;-81
2022/02/11 01:29:02;;;;;;;13.85;6.47;;;6.10;99.90;;;;;;5057590;28;20205;-82
2022/02/11 01:31:46;;;;;;;6.70;5.88;;;6.10;99.90;;;;;;5056903;28;20225;-81
2022/02/11 01:34:34;;;;;;;4.55;4.07;;;6.10;99.90;;;;;;5055918;28;20209;-81
2022/02/11 01:37:19;;;;;;;4.72;4.25;;;5.90;99.90;;;;;;5056690;28;20650;-81
2022/02/11 01:40:23;;;;;;;8.50;6.20;;;5.70;99.90;;;;;;5056809;28;20287;-81
2022/02/11 01:51:33;;;;;;;4.72;4.32;;;5.70;99.90;;;;;;5136933;27;20718;-82
2022/02/11 01:54:07;;;;;;;5.95;5.40;;;5.70;99.90;;;;;;5118518;27;20732;-82
2022/02/11 01:56:44;;;;;;;9.23;6.68;;;5.70;99.90;;;;;;5114901;28;20204;-82
2022/02/11 02:02:31;;;;;;;6.05;5.18;;;5.80;99.90;;;;;;5112768;22;20249;-81
2022/02/11 02:11:13;;;;;;;5.65;5.18;;;5.90;99.90;;;;;;5058868;28;20290;-81
2022/02/11 02:22:22;;;;;;;6.90;5.55;;;6.10;99.90;;;;;;5056324;28;20251;-80
2022/02/11 02:24:58;;;;;;;6.00;5.28;;;6.10;99.90;;;;;;5094838;28;20232;-81
2022/02/11 02:50:14;;;;;;;5.28;3.33;;;5.60;99.90;;;;;;5027654;28;20221;-81
2022/02/11 02:58:17;;;;;;;5.22;3.22;;;5.40;99.90;;;;;;5080107;28;20196;-82
2022/02/11 03:50:40;;;;;;;2.05;1.40;;;3.80;99.90;;;;;;5063973;28;20231;-80
2022/02/11 04:56:44;;;;;;;2.63;2.40;;;1.80;99.90;;;;;;5055720;28;20205;-80
2022/02/11 05:01:56;;;;;;;3.88;3.58;;;1.80;99.90;;;;;;5064828;28;20231;-80
2022/02/11 05:04:23;;;;;;;4.80;4.00;;;1.80;99.90;;;;;;5057420;28;20243;-80
2022/02/11 05:06:49;;;;;;;6.25;4.40;;;1.90;99.90;;;;;;5053500;28;20228;-80
2022/02/11 05:09:17;;;;;;;2.38;2.17;;;1.90;99.90;;;;;;5061877;28;20200;-80
2022/02/11 05:11:44;;;;;;;3.55;2.88;;;1.80;99.90;;;;;;5059648;28;20217;-80
2022/02/11 05:14:13;;;;;;;5.78;3.20;;;1.80;99.90;;;;;;5064189;28;20202;-80
2022/02/11 05:16:39;;;;;;;2.25;2.15;;;1.80;99.90;;;;;;5052621;28;20200;-80
2022/02/11 05:19:06;;;;;;;1.88;1.73;;;1.80;99.90;;;;;;5058683;28;20206;-80
2022/02/11 05:21:33;;;;;;;2.08;1.95;;;1.80;99.90;;;;;;5063580;28;20231;-79
2022/02/11 05:23:59;;;;;;;2.55;2.35;;;1.70;99.90;;;;;;5057990;28;20199;-80
2022/02/11 05:26:28;;;;;;;2.17;1.98;;;1.70;99.90;;;;;;5063283;28;20195;-80
2022/02/11 05:28:56;;;;;;;2.30;2.13;;;1.80;99.90;;;;;;5057629;28;20200;-80
2022/02/11 05:31:23;;;;;;;1.50;1.48;;;1.70;99.90;;;;;;5062872;28;20242;-80
2022/02/11 05:33:49;;;;;;;5.65;4.25;;;1.70;99.90;;;;;;5061224;28;20196;-80
2022/02/11 05:36:16;;;;;;;4.82;3.20;;;1.80;99.90;;;;;;5053747;28;20201;-80
2022/02/11 05:38:43;;;;;;;3.85;3.40;;;1.80;99.90;;;;;;5063274;28;20293;-80
2022/02/11 05:41:11;;;;;;;3.85;3.55;;;1.80;99.90;;;;;;5060035;28;20225;-80
2022/02/11 05:43:40;;;;;;;4.88;4.57;;;1.80;99.90;;;;;;5055468;28;20702;-80
2022/02/11 05:46:09;;;;;;;4.97;4.15;;;1.80;99.90;;;;;;5053504;28;20583;-80
2022/02/11 05:48:38;;;;;;;2.20;1.73;;;1.90;99.90;;;;;;5062504;28;20235;-80
2022/02/11 05:51:05;;;;;;;6.00;4.63;;;1.80;99.90;;;;;;5051214;28;20247;-80
2022/02/11 05:53:32;;;;;;;6.45;4.18;;;1.80;99.90;;;;;;5060507;28;20197;-80
2022/02/11 05:55:58;;;;;;;4.72;4.15;;;1.90;99.90;;;;;;5063303;28;20211;-80
2022/02/11 05:58:25;;;;;;;3.15;2.85;;;1.90;99.90;;;;;;5062486;28;20197;-81
2022/02/11 06:00:54;;;;;;;5.18;4.68;;;1.90;99.90;;;;;;5068084;28;20233;-81
2022/02/11 06:03:20;;;;;;;5.93;5.00;;;1.90;99.90;;;;;;5084236;28;20213;-80
2022/02/11 06:05:47;;;;;;;5.55;5.00;;;2.00;99.90;;;;;;5078010;28;20202;-80
2022/02/11 06:08:14;;;;;;;6.00;5.47;;;2.00;99.90;;;;;;5062656;28;20230;-80
2022/02/11 06:10:40;;;;;;;5.63;4.80;;;1.90;99.90;;;;;;5064394;28;20218;-80
2022/02/11 06:13:07;;;;;;;10.07;5.00;;;1.90;99.90;;;;;;5082957;28;20211;-80
2022/02/11 06:15:34;;;;;;;8.77;5.38;;;2.00;99.90;;;;;;5079491;28;20206;-80
2022/02/11 06:18:02;;;;;;;6.70;5.15;;;1.90;99.90;;;;;;5060288;28;20200;-81
2022/02/11 06:20:28;;;;;;;8.00;6.95;;;2.00;99.90;;;;;;5057959;28;20257;-82
2022/02/11 06:22:56;;;;;;;9.90;6.32;;;2.00;99.90;;;;;;5075463;28;20210;-83
2022/02/11 06:25:23;;;;;;;8.30;6.28;;;2.10;99.90;;;;;;5075496;28;20218;-82
2022/02/11 06:27:50;;;;;;;7.65;5.63;;;2.00;99.90;;;;;;5056482;28;20310;-82
2022/02/11 06:30:16;;;;;;;8.32;4.50;;;2.00;99.90;;;;;;5063187;28;20221;-82
2022/02/11 06:32:43;;;;;;;7.70;5.60;;;2.00;99.90;;;;;;5076333;28;20219;-83
2022/02/11 06:35:12;;;;;;;7.97;6.22;;;2.00;99.90;;;;;;5072567;28;20203;-82
2022/02/11 06:37:42;;;;;;;10.32;6.15;;;2.00;99.90;;;;;;5060019;28;20223;-82
2022/02/11 06:40:11;;;;;;;7.03;4.75;;;1.90;99.90;;;;;;5058757;28;20248;-81
2022/02/11 06:42:38;;;;;;;5.32;4.93;;;1.90;99.90;;;;;;5057589;28;20203;-80
2022/02/11 06:45:05;;;;;;;6.00;3.83;;;1.80;99.90;;;;;;5059246;28;20207;-82
2022/02/11 06:47:32;;;;;;;4.15;3.75;;;1.80;99.90;;;;;;5057052;28;20254;-79
2022/02/11 06:50:00;;;;;;;5.55;4.47;;;1.80;99.90;;;;;;5060797;28;20236;-80
2022/02/11 06:52:28;;;;;;;6.82;5.50;;;1.80;99.90;;;;;;5076536;28;20216;-82
2022/02/11 06:54:54;;;;;;;7.35;5.15;;;1.70;99.90;;;;;;5076618;28;20849;-82
2022/02/11 06:57:21;;;;;;;6.25;5.03;;;1.70;99.90;;;;;;5059864;28;20197;-81
2022/02/11 06:59:48;;;;;;;6.65;5.63;;;1.70;99.90;;;;;;5061019;28;20207;-82
2022/02/11 07:02:18;;;;;;;4.65;4.15;;;1.70;99.90;;;;;;5079710;28;20210;-82
2022/02/11 07:04:45;;;;;;;7.53;5.07;;;1.80;99.90;;;;;;5080710;28;20211;-83
2022/02/11 07:07:12;;;;;;;6.13;5.28;;;1.80;99.90;;;;;;5061550;28;20581;-82
2022/02/11 07:09:40;;;;;;;6.63;5.10;;;1.90;99.90;;;;;;5061046;28;20198;-81
2022/02/11 07:12:08;;;;;;;8.10;5.20;;;1.90;99.90;;;;;;5060762;28;20234;-81
2022/02/11 07:14:35;;;;;;;6.35;4.82;;;1.80;99.90;;;;;;5062473;28;20208;-82
2022/02/11 07:17:02;;;;;;;6.47;5.88;;;1.70;99.90;;;;;;5061550;28;20214;-81
2022/02/11 07:19:30;;;;;;;5.30;4.03;;;1.70;99.90;;;;;;5060887;28;20229;-80
2022/02/11 07:22:00;;;;;;;3.38;3.15;;;1.70;99.90;;;;;;5060164;28;20231;-79
2022/02/11 07:24:27;;;;;;;5.63;5.13;;;1.70;99.90;;;;;;5061034;28;20190;-79
2022/02/11 07:26:55;;;;;;;7.32;5.93;;;1.70;99.90;;;;;;5080002;28;20209;-80
2022/02/11 07:29:22;;;;;;;4.75;3.55;;;1.70;99.90;;;;;;5078370;28;20221;-80
2022/02/11 07:31:49;;;;;;;4.47;4.07;;;1.60;99.90;;;;;;5059456;28;20236;-79
2022/02/11 07:34:16;;;;;;;2.88;2.42;;;1.70;99.90;;;;;;5060194;28;20624;-79
2022/02/11 07:36:43;;;;;;;5.68;4.82;;;1.60;99.90;;;;;;5056137;28;20301;-82
2022/02/11 07:39:10;;;;;;;6.22;4.20;;;1.70;99.90;;;;;;5046667;28;20199;-81
2022/02/11 07:41:37;;;;;;;5.60;4.45;;;1.60;99.90;;;;;;5049010;28;20225;-81
2022/02/11 07:44:06;;;;;;;4.57;4.05;;;1.70;99.90;;;;;;5047451;28;20567;-79
2022/02/11 07:46:33;;;;;;;6.15;5.15;;;1.80;99.90;;;;;;5054448;28;20572;-81
2022/02/11 07:49:00;;;;;;;5.97;5.20;;;1.80;99.90;;;;;;5046627;28;20686;-82
2022/02/11 07:51:27;;;;;;;7.22;4.85;;;1.90;99.90;;;;;;5047990;28;20219;-81
2022/02/11 07:53:55;;;;;;;7.97;7.18;;;2.00;99.90;;;;;;5047230;28;20638;-81
2022/02/11 07:56:22;;;;;;;5.20;4.50;;;2.10;99.90;;;;;;5055240;28;20239;-81
2022/02/11 07:58:51;;;;;;;7.93;6.30;;;2.30;99.90;;;;;;5055447;28;20204;-81
2022/02/11 08:01:20;;;;;;;5.78;5.00;;;2.40;99.90;;;;;;5096684;22;20298;-81
2022/02/11 08:03:47;;;;;;;5.07;4.68;;;2.40;99.90;;;;;;5049138;28;20209;-81
2022/02/11 08:06:14;;;;;;;5.18;4.75;;;2.40;99.90;;;;;;5043687;28;20307;-82
2022/02/11 08:08:44;;;;;;;8.85;5.10;;;2.50;99.90;;;;;;5054455;28;20228;-82
2022/02/11 08:11:11;;;;;;;5.85;5.38;;;2.40;99.90;;;;;;5044326;28;20586;-80
2022/02/11 08:13:38;;;;;;;5.22;4.60;;;2.50;99.90;;;;;;5073151;28;20284;-82
2022/02/11 08:16:06;;;;;;;4.45;3.15;;;2.60;99.90;;;;;;5076305;28;20688;-82
2022/02/11 08:18:34;;;;;;;5.32;4.05;;;2.70;99.90;;;;;;5060328;28;20580;-81
2022/02/11 08:21:01;;;;;;;6.82;3.58;;;2.80;99.90;;;;;;5045898;28;20608;-82
2022/02/11 08:23:28;;;;;;;3.47;2.53;;;2.70;99.90;;;;;;5054248;28;20214;-83
2022/02/11 08:25:55;;;;;;;4.72;2.70;;;2.60;99.90;;;;;;5056955;28;20299;-83
2022/02/11 08:28:22;;;;;;;4.20;3.53;;;2.50;99.90;;;;;;5059102;28;20221;-82
2022/02/11 08:30:50;;;;;;;5.50;3.75;;;2.50;99.90;;;;;;5056567;28;20227;-83
2022/02/11 08:33:21;;;;;;;7.47;4.57;;;2.50;99.90;;;;;;5071467;28;20213;-83
2022/02/11 08:35:50;;;;;;;5.72;3.67;;;2.60;99.90;;;;;;5078184;28;20206;-84
2022/02/11 08:38:18;;;;;;;3.35;3.00;;;2.60;99.90;;;;;;5065417;28;20203;-84
2022/02/11 08:40:45;;;;;;;2.92;2.72;;;2.70;99.90;;;;;;5057493;28;20231;-83
2022/02/11 08:43:11;;;;;;;3.10;2.90;;;2.60;99.90;;;;;;5055647;28;20229;-82
2022/02/11 08:45:40;;;;;;;5.22;4.72;;;2.60;99.90;;;;;;5055539;28;20208;-83
2022/02/11 08:48:07;;;;;;;2.70;2.15;;;2.80;99.90;;;;;;5066692;28;20228;-81
2022/02/11 08:50:34;;;;;;;4.90;3.75;;;2.60;99.90;;;;;;5074392;28;20305;-83
2022/02/11 08:53:02;;;;;;;3.42;3.15;;;2.60;99.90;;;;;;5062553;28;20562;-81
2022/02/11 08:55:29;;;;;;;8.40;3.10;;;2.50;99.90;;;;;;5060833;28;20204;-83
2022/02/11 08:57:59;;;;;;;5.85;4.07;;;2.40;99.90;;;;;;5070582;28;20198;-82
2022/02/11 09:00:26;;;;;;;5.70;3.20;;;2.50;99.90;;;;;;5081603;28;20211;-85
2022/02/11 09:02:53;;;;;;;4.50;1.75;;;2.50;99.90;;;;;;5068041;28;20213;-82
2022/02/11 09:05:21;;;;;;;2.30;1.90;;;2.40;99.90;;;;;;5058855;28;20215;-83
2022/02/11 09:07:48;;;;;;;4.45;4.05;;;2.50;99.90;;;;;;5051992;28;20200;-81
2022/02/11 09:10:16;;;;;;;5.50;2.60;;;2.70;99.90;;;;;;5057943;28;20207;-82
2022/02/11 09:12:43;;;;;;;3.65;2.08;;;2.80;99.90;;;;;;5055023;28;20669;-83
2022/02/11 09:15:10;;;;;;;5.10;2.70;;;2.80;99.90;;;;;;5053749;28;20209;-82
2022/02/11 09:17:37;;;;;;;4.90;3.10;;;2.80;99.90;;;;;;5052801;28;20205;-81
2022/02/11 09:20:04;;;;;;;2.80;2.60;;;2.90;99.90;;;;;;5054217;28;20208;-79
2022/02/11 09:27:55;;;;;;;4.47;2.97;;;2.90;99.90;;;;;;5072514;28;20227;-83
2022/02/11 09:30:24;;;;;;;3.85;2.83;;;3.00;99.90;;;;;;5074371;28;20518;-83
2022/02/11 09:32:52;;;;;;;3.22;2.95;;;3.00;99.90;;;;;;5074141;28;20210;-83
2022/02/11 09:35:21;;;;;;;3.30;2.63;;;3.00;99.90;;;;;;5073310;28;20257;-82
2022/02/11 09:37:48;;;;;;;2.45;1.85;;;3.10;99.90;;;;;;5073250;28;20200;-83
2022/02/11 09:40:19;;;;;;;6.00;3.47;;;3.20;99.90;;;;;;5072662;28;20236;-82
2022/02/11 09:42:46;;;;;;;3.42;3.13;;;3.30;99.90;;;;;;5079064;28;20233;-82
2022/02/11 09:45:18;;;;;;;3.65;2.50;;;3.30;99.90;;;;;;5079280;28;20207;-82
2022/02/11 09:47:45;;;;;;;3.47;2.50;;;3.40;99.90;;;;;;5073418;28;20204;-82
2022/02/11 09:50:12;;;;;;;3.42;2.10;;;3.60;99.90;;;;;;5073891;28;20208;-82
2022/02/11 09:52:40;;;;;;;2.80;2.60;;;3.50;99.90;;;;;;5073502;28;21939;-83
2022/02/11 09:57:53;;;;;;;5.10;2.83;;;3.80;99.90;;;;;;5077253;28;20234;-82
2022/02/11 10:00:25;;;;;;;3.20;2.95;;;4.10;99.90;;;;;;5077238;28;20583;-82
2022/02/11 10:02:52;;;;;;;4.25;2.40;;;4.20;99.90;;;;;;5077384;28;20189;-81
2022/02/11 10:05:23;;;;;;;2.08;1.98;;;4.40;99.90;;;;;;5077167;28;20208;-81
2022/02/11 10:07:50;;;;;;;6.18;3.08;;;4.60;99.90;;;;;;5074618;28;20208;-81
2022/02/11 10:10:38;;;;;;;4.07;2.80;;;4.70;99.90;;;;;;5079982;28;20231;-81
2022/02/11 10:13:06;;;;;;;3.28;3.00;;;4.60;99.90;;;;;;5080719;28;20243;-81
2022/02/11 10:15:37;;;;;;;5.32;2.85;;;4.30;99.90;;;;;;5081955;28;20201;-81
2022/02/11 10:18:04;;;;;;;2.85;2.65;;;4.10;99.90;;;;;;5081887;28;20293;-82
2022/02/11 10:20:34;;;;;;;2.40;2.17;;;4.10;99.90;;;;;;5082907;28;20225;-82
2022/02/11 10:23:19;;;;;;;2.90;2.80;;;4.10;99.90;;;;;;5083430;28;20215;-82
2022/02/11 10:25:59;;;;;;;3.55;2.75;;;4.00;99.90;;;;;;5082871;28;20211;-82
2022/02/11 10:28:35;;;;;;;5.75;3.72;;;3.90;99.90;;;;;;5082633;28;20234;-82
2022/02/11 10:31:23;;;;;;;4.97;4.20;;;4.00;99.90;;;;;;5081394;28;20224;-83
2022/02/11 10:34:00;;;;;;;3.25;3.05;;;4.20;99.90;;;;;;5081916;28;20204;-82
2022/02/11 10:36:28;;;;;;;1.88;1.77;;;4.50;99.90;;;;;;5082365;28;20197;-86
2022/02/11 10:39:06;;;;;;;2.40;2.17;;;4.40;99.90;;;;;;5081899;28;20205;-85
2022/02/11 10:41:35;;;;;;;8.48;2.90;;;4.20;99.90;;;;;;5080803;28;20221;-84
2022/02/11 10:44:06;;;;;;;2.72;2.53;;;4.20;99.90;;;;;;5082416;28;20212;-87
2022/02/11 10:46:36;;;;;;;2.45;1.98;;;4.30;99.90;;;;;;5083166;28;20209;-83
2022/02/11 10:49:03;;;;;;;3.65;2.65;;;4.40;99.90;;;;;;5079644;28;20220;-83
2022/02/11 10:51:30;;;;;;;3.67;2.30;;;4.50;99.90;;;;;;5077976;28;20225;-83
2022/02/11 10:53:57;;;;;;;3.80;2.08;;;4.30;99.90;;;;;;5078991;28;20208;-82
2022/02/11 10:56:27;;;;;;;3.55;2.75;;;4.30;99.90;;;;;;5079834;28;20293;-82
2022/02/11 10:58:56;;;;;;;3.40;3.03;;;4.30;99.90;;;;;;5078317;28;20208;-83
2022/02/11 11:01:23;;;;;;;2.55;2.00;;;4.30;99.90;;;;;;5077501;28;20716;-83
2022/02/11 11:03:51;;;;;;;3.70;2.72;;;4.20;99.90;;;;;;5077784;28;20296;-83
2022/02/11 11:06:19;;;;;;;2.38;2.20;;;4.20;99.90;;;;;;5078230;28;20580;-83
2022/02/11 11:08:47;;;;;;;3.10;2.78;;;4.30;99.90;;;;;;5078978;28;20243;-82
2022/02/11 11:11:16;;;;;;;16.08;2.28;;;4.20;99.90;;;;;;5078950;28;20225;-83
2022/02/11 11:13:47;;;;;;;2.60;2.15;;;4.20;99.90;;;;;;5079776;28;20205;-82
2022/02/11 11:16:16;;;;;;;2.42;2.22;;;4.40;99.90;;;;;;5077730;28;20215;-83
2022/02/11 11:18:44;;;;;;;3.03;2.45;;;4.60;99.90;;;;;;5081647;28;20197;-83
2022/02/11 11:21:13;;;;;;;3.97;2.67;;;4.70;99.90;;;;;;5083504;28;20221;-82
2022/02/11 11:23:53;;;;;;;4.60;2.88;;;4.50;99.90;;;;;;5059180;28;20663;-84
2022/02/11 11:26:21;;;;;;;2.33;2.13;;;4.50;99.90;;;;;;5057202;28;20217;-83
2022/02/11 11:28:49;;;;;;;3.30;2.63;;;4.30;99.90;;;;;;5069729;28;20267;-83
2022/02/11 11:31:18;;;;;;;4.20;2.38;;;4.30;99.90;;;;;;5059510;28;20243;-83
2022/02/11 11:33:46;;;;;;;7.53;1.60;;;4.50;99.90;;;;;;5077821;28;20205;-83
2022/02/11 11:36:19;;;;;;;2.67;2.47;;;4.50;99.90;;;;;;5078202;28;20315;-82
2022/02/11 11:38:56;;;;;;;5.95;3.00;;;4.30;99.90;;;;;;5077412;28;20204;-82
2022/02/11 11:41:25;;;;;;;7.47;2.58;;;4.30;99.90;;;;;;5076919;28;20264;-83
2022/02/11 11:43:53;;;;;;;3.45;3.15;;;4.40;99.90;;;;;;5076850;28;20199;-83
2022/02/11 11:46:36;;;;;;;2.28;1.70;;;4.30;99.90;;;;;;5078390;28;20211;-83
2022/02/11 11:49:13;;;;;;;2.35;2.08;;;4.40;99.90;;;;;;5077806;28;20210;-81
2022/02/11 11:52:06;;;;;;;3.22;2.97;;;4.40;99.90;;;;;;5082051;28;20227;-84
2022/02/11 11:54:34;;;;;;;6.65;2.70;;;4.50;99.90;;;;;;5060900;28;20208;-83
2022/02/11 11:57:02;;;;;;;2.95;2.67;;;4.50;99.90;;;;;;5081619;28;20219;-84
2022/02/11 11:59:32;;;;;;;1.75;1.65;;;4.60;99.90;;;;;;5081229;28;20208;-84
2022/02/11 12:02:01;;;;;;;2.55;2.35;;;4.60;99.90;;;;;;5080675;28;20228;-84
2022/02/11 12:04:29;;;;;;;8.77;3.05;;;4.70;99.90;;;;;;5081951;28;20204;-83
2022/02/11 12:06:58;;;;;;;3.00;2.33;;;4.90;99.90;;;;;;5080016;28;20205;-83
2022/02/11 12:09:27;;;;;;;4.00;2.28;;;4.90;99.90;;;;;;5078670;28;20221;-82
2022/02/11 12:12:00;;;;;;;3.13;2.65;;;5.00;99.90;;;;;;5080469;28;20217;-83
2022/02/11 12:14:28;;;;;;;2.85;1.90;;;5.00;99.90;;;;;;5079892;28;20242;-84
2022/02/11 12:16:56;;;;;;;2.50;2.30;;;5.60;99.90;;;;;;5080184;28;20204;-83
2022/02/11 12:19:23;;;;;;;3.97;1.80;;;6.00;99.90;;;;;;5084217;28;20678;-84
2022/02/11 12:27:23;;;;;;;1.65;1.50;;;5.40;99.30;;;;;;5078591;28;20231;-84
2022/02/11 12:29:52;;;;;;;5.45;1.50;;;6.30;97.90;;;;;;5079061;28;20277;-83
2022/02/11 12:32:21;;;;;;;4.25;1.45;;;6.80;95.40;;;;;;5077352;28;20227;-83
2022/02/11 12:34:58;;;;;;;1.40;1.30;;;7.10;94.90;;;;;;5079660;28;20201;-84
2022/02/11 12:37:27;;;;;;;5.32;1.67;;;7.90;94.60;;;;;;5080088;28;20211;-84
2022/02/11 12:40:09;;;;;;;2.88;1.70;;;8.40;92.30;;;;;;5084424;28;20890;-85
2022/02/11 12:42:37;;;;;;;2.28;1.48;;;8.30;92.50;;;;;;5079961;28;20221;-84
2022/02/11 12:45:09;;;;;;;1.40;1.30;;;8.20;90.80;;;;;;5082188;28;20205;-82
2022/02/11 12:47:37;;;;;;;4.03;0.90;;;8.00;91.30;;;;;;5080924;28;20206;-83
2022/02/11 12:50:07;;;;;;;1.60;1.48;;;7.30;90.70;;;;;;5081741;28;20247;-82
2022/02/11 12:52:36;;;;;;;2.38;1.85;;;6.70;91.30;;;;;;5080245;28;20698;-84
2022/02/11 12:55:22;;;;;;;5.18;2.20;;;6.40;92.10;;;;;;5084906;28;20262;-84
2022/02/11 12:57:51;;;;;;;0.90;0.90;;;6.10;92.40;;;;;;5080383;28;20215;-88
2022/02/11 13:00:20;;;;;;;0.85;0.77;;;5.60;92.10;;;;;;5080086;28;20205;-82
2022/02/11 13:02:47;;;;;;;1.08;1.08;;;5.30;93.10;;;;;;5080015;28;20308;-84
2022/02/11 13:05:16;;;;;;;2.05;1.02;;;5.10;93.60;;;;;;5067544;28;20895;-85
2022/02/11 13:07:45;;;;;;;6.05;1.85;;;5.00;94.60;;;;;;5079759;28;20265;-84
2022/02/11 13:10:19;;;;;;;1.92;1.83;;;4.90;94.10;;;;;;5081341;28;20237;-84
2022/02/11 13:12:48;;;;;;;3.30;2.00;;;5.00;95.10;;;;;;5080319;28;20560;-84
2022/02/11 13:15:27;;;;;;;2.80;2.00;;;5.00;95.40;;;;;;5085295;28;20201;-84
2022/02/11 13:18:12;;;;;;;2.28;2.00;;;5.10;95.80;;;;;;5072266;28;20216;-85
2022/02/11 13:21:46;;;;;;;1.60;1.50;;;5.20;96.80;;;;;;5071965;28;20262;-85
2022/02/11 13:34:21;;;;;;;2.67;1.65;;;5.50;97.50;;;;;;5074666;28;20219;-85
2022/02/11 13:37:24;;;;;;;1.30;1.20;;;5.70;97.30;;;;;;5081559;28;20200;-84
2022/02/11 13:50:02;;;;;;;2.00;1.80;;;7.70;91.20;;;;;;4949693;28;20251;-82
2022/02/11 14:03:37;;;;;;;1.60;1.50;;;7.00;92.90;;;;;;4935352;29;20236;-83
2022/02/11 14:09:35;;;;;;;2.20;2.10;;;6.70;93.40;;;;;;4935951;28;20236;-83
2022/02/11 14:12:31;;;;;;;1.65;1.55;;;6.30;93.10;;;;;;5047281;28;20229;-84
2022/02/11 14:15:33;;;;;;;2.15;1.95;;;6.10;93.60;;;;;;5049244;28;20231;-82
2022/02/11 14:17:59;;;;;;;1.83;1.65;;;6.80;93.50;;;;;;5041046;28;20208;-84
2022/02/11 14:20:26;;;;;;;2.92;2.30;;;7.00;93.30;;;;;;5042110;28;20211;-85
2022/02/11 14:22:53;;;;;;;3.63;2.20;;;6.90;92.80;;;;;;5055268;28;20213;-84
2022/02/11 14:25:21;;;;;;;2.15;1.95;;;6.10;93.40;;;;;;5043469;28;20202;-84
2022/02/11 14:27:48;;;;;;;2.90;2.60;;;5.90;94.10;;;;;;5051209;28;20214;-83
2022/02/11 14:30:17;;;;;;;2.42;2.22;;;5.80;94.30;;;;;;5058806;28;20225;-84
2022/02/11 14:32:44;;;;;;;1.80;1.70;;;5.70;94.70;;;;;;5054321;28;20301;-84
2022/02/11 14:35:12;;;;;;;3.25;2.95;;;5.90;94.90;;;;;;5048723;28;20199;-85
2022/02/11 14:37:39;;;;;;;2.00;1.90;;;6.10;94.40;;;;;;5058471;28;20296;-84
2022/02/11 14:40:08;;;;;;;2.95;1.95;;;6.30;94.40;;;;;;5058881;28;20202;-84
2022/02/11 14:42:36;;;;;;;8.57;2.72;;;6.40;93.60;;;;;;5053719;28;20231;-84
2022/02/11 14:45:03;;;;;;;2.00;1.90;;;6.30;94.30;;;;;;5084483;22;20232;-79
2022/02/11 14:47:30;;;;;;;3.33;2.00;;;6.30;94.30;;;;;;5078086;28;20209;-82
2022/02/11 14:49:57;;;;;;;7.65;2.60;;;6.30;94.40;;;;;;5058941;28;20631;-81
2022/02/11 14:52:24;;;;;;;2.85;2.65;;;6.30;95.00;;;;;;5073983;28;21423;-81
2022/02/11 14:54:51;;;;;;;2.38;1.90;;;6.30;95.20;;;;;;5069733;28;20240;-82
2022/02/11 14:57:18;;;;;;;2.38;1.80;;;6.30;94.70;;;;;;5072425;28;20196;-81
2022/02/11 14:59:46;;;;;;;4.50;2.38;;;6.20;94.00;;;;;;5074416;28;20200;-81
2022/02/11 15:02:12;;;;;;;4.82;2.35;;;6.20;94.10;;;;;;5065351;28;20690;-82
2022/02/11 15:04:39;;;;;;;2.20;2.00;;;6.20;93.60;;;;;;5057309;28;20584;-83
2022/02/11 15:07:07;;;;;;;2.90;2.60;;;6.00;93.60;;;;;;5077583;28;20233;-81
2022/02/11 15:09:34;;;;;;;2.28;1.83;;;6.00;94.00;;;;;;5079795;28;20201;-80
2022/02/11 15:12:01;;;;;;;1.63;1.52;;;5.80;93.70;;;;;;5080257;28;20212;-82
2022/02/11 15:14:29;;;;;;;2.17;1.70;;;5.60;93.00;;;;;;5079555;28;20225;-81
2022/02/11 15:16:57;;;;;;;6.25;2.38;;;5.50;93.10;;;;;;5081539;28;20201;-81
2022/02/11 15:19:24;;;;;;;3.03;1.70;;;5.40;93.70;;;;;;5088052;28;20204;-83
2022/02/11 15:21:51;;;;;;;2.38;1.90;;;5.20;93.40;;;;;;5085466;28;20201;-81
2022/02/11 15:24:18;;;;;;;3.95;2.15;;;5.10;93.90;;;;;;5077973;28;20765;-81
2022/02/11 15:26:45;;;;;;;2.25;1.98;;;5.00;93.80;;;;;;5078506;28;20208;-79
2022/02/11 15:29:12;;;;;;;2.70;2.50;;;5.00;94.10;;;;;;5078218;28;20254;-81
2022/02/11 15:31:40;;;;;;;6.80;1.95;;;5.00;94.20;;;;;;5076586;28;20354;-80
2022/02/11 15:34:09;;;;;;;4.95;1.70;;;5.10;94.60;;;;;;5075814;28;20229;-80
2022/02/11 15:36:37;;;;;;;4.60;2.75;;;5.00;94.60;;;;;;5076869;28;20209;-79
2022/02/11 15:39:04;;;;;;;2.97;2.13;;;4.90;94.70;;;;;;5076434;28;20216;-80
2022/02/11 15:41:31;;;;;;;1.63;1.52;;;4.90;94.50;;;;;;5076900;28;20197;-78
2022/02/11 15:43:59;;;;;;;4.13;3.30;;;4.90;94.40;;;;;;5077185;28;20283;-80
2022/02/11 15:46:27;;;;;;;3.03;1.90;;;4.90;94.60;;;;;;5076859;28;20213;-81
2022/02/11 15:48:54;;;;;;;2.67;1.60;;;4.80;95.00;;;;;;5077163;28;20209;-81
2022/02/11 15:51:22;;;;;;;6.57;2.20;;;4.70;94.90;;;;;;5079029;28;20235;-81
2022/02/11 15:53:49;;;;;;;2.53;2.25;;;4.70;95.30;;;;;;5075912;28;20200;-80
2022/02/11 15:56:16;;;;;;;2.03;1.92;;;4.60;95.40;;;;;;5076681;28;20580;-80
2022/02/11 15:58:43;;;;;;;2.47;2.28;;;4.60;95.40;;;;;;5077584;28;20204;-81
2022/02/11 16:01:09;;;;;;;3.08;2.20;;;4.70;95.40;;;;;;5077115;28;20258;-79
2022/02/11 16:03:36;;;;;;;2.28;2.05;;;4.60;95.70;;;;;;5077241;28;20211;-81
2022/02/11 16:06:05;;;;;;;3.28;2.45;;;4.50;95.70;;;;;;5077928;28;20721;-81
2022/02/11 16:08:33;;;;;;;3.58;2.30;;;4.60;95.90;;;;;;5060696;28;20212;-80
2022/02/11 16:11:00;;;;;;;3.80;2.92;;;4.50;96.10;;;;;;5076828;28;20228;-79
2022/02/11 16:13:27;;;;;;;3.67;2.50;;;4.40;96.40;;;;;;5066515;28;20707;-80
2022/02/11 16:15:54;;;;;;;3.88;3.58;;;4.50;96.70;;;;;;5057862;28;20221;-78
2022/02/11 16:18:23;;;;;;;3.05;2.42;;;4.50;96.70;;;;;;5077774;28;20201;-79
2022/02/11 16:20:50;;;;;;;3.10;2.33;;;4.50;96.70;;;;;;5055085;28;20442;-77
2022/02/11 16:23:19;;;;;;;1.85;1.73;;;4.50;96.90;;;;;;5078962;28;20201;-79
2022/02/11 16:25:48;;;;;;;2.42;1.67;;;4.50;96.60;;;;;;5066547;28;20229;-79
2022/02/11 16:28:16;;;;;;;3.05;2.85;;;4.50;96.80;;;;;;5058568;28;20201;-80
2022/02/11 16:30:44;;;;;;;3.05;2.45;;;4.40;96.60;;;;;;5069638;28;20702;-80
2022/02/11 16:33:11;;;;;;;2.88;2.67;;;4.50;97.20;;;;;;5080300;28;20208;-80
2022/02/11 16:35:40;;;;;;;3.97;2.10;;;4.60;97.00;;;;;;5072102;28;20597;-80
2022/02/11 16:38:08;;;;;;;4.50;2.50;;;4.50;96.70;;;;;;5064122;28;20205;-80
2022/02/11 16:40:35;;;;;;;6.15;2.22;;;4.50;96.90;;;;;;5088949;28;20215;-77
2022/02/11 16:43:03;;;;;;;2.10;2.00;;;4.50;97.20;;;;;;5093877;28;20197;-76
2022/02/11 16:45:33;;;;;;;2.90;2.15;;;4.60;97.10;;;;;;5072629;28;20224;-79
2022/02/11 16:48:00;;;;;;;3.53;2.95;;;4.50;97.30;;;;;;5077111;28;20219;-80
2022/02/11 16:50:27;;;;;;;3.97;2.70;;;4.50;97.20;;;;;;5057587;28;20279;-80
2022/02/11 16:52:54;;;;;;;3.25;2.55;;;4.50;97.30;;;;;;5057668;28;20209;-79
2022/02/11 16:55:21;;;;;;;3.78;2.25;;;4.40;98.10;;;;;;5059080;28;20631;-78
2022/02/11 16:57:48;;;;;;;8.88;5.68;;;4.20;99.70;;;;;;5062662;28;20212;-81
2022/02/11 17:00:16;;;;;;;7.45;3.42;;;4.00;99.90;;;;;;5054854;28;20297;-80
2022/02/11 17:02:43;;;;;;;5.78;4.00;;;3.70;99.90;;;;;;5054754;28;20217;-81
2022/02/11 17:05:10;;;;;;;5.30;3.05;;;3.70;99.90;;;;;;5056231;28;20663;-81
2022/02/11 17:07:39;;;;;;;2.60;2.40;;;3.70;99.90;;;;;;5057241;28;20209;-79
2022/02/11 17:10:06;;;;;;;1.80;1.70;;;3.60;99.90;;;;;;5072198;28;20223;-77
2022/02/11 17:12:34;;;;;;;3.83;3.47;;;3.60;99.90;;;;;;5058799;28;20671;-79
2022/02/11 17:15:00;;;;;;;3.47;3.28;;;3.60;99.90;;;;;;5071356;28;20304;-80
2022/02/11 17:17:29;;;;;;;7.05;3.65;;;3.50;99.90;;;;;;5076158;28;20216;-80
2022/02/11 17:19:55;;;;;;;5.70;4.50;;;3.50;99.90;;;;;;5061941;28;20204;-80